Date,TemperatureHighF,TemperatureAvgF,TemperatureLowF,DewpointHighF,DewpointAvgF,DewpointLowF,HumidityHigh,HumidityAvg,HumidityLow,PressureMaxIn,PressureMinIn,WindSpeedMaxMPH,WindSpeedAvgMPH,GustSpeedMaxMPH,PrecipitationSumIn
2013-3-1,42.1,36.4,31.9,30.5,27.9,24.0,83,71,59,29.74,29.55,26,6,26,0.00
2013-3-2,36.2,31.5,27.2,24.6,22.7,18.4,76,70,61,29.73,29.66,29,8,29,0.00
2013-3-3,32.2,27.2,23.4,22.9,17.4,14.5,72,66,60,29.73,29.64,33,10,33,0.00
2013-3-4,34.0,29.1,25.4,22.1,19.7,16.3,76,68,59,29.87,29.70,44,13,44,0.00
2013-3-5,46.2,34.4,29.4,28.4,25.1,21.8,83,69,49,30.00,29.85,34,7,34,0.00
2013-3-6,41.4,37.2,31.8,33.0,28.7,24.9,83,72,63,30.03,29.92,30,5,30,0.00
2013-3-7,37.0,34.2,31.3,31.0,27.3,23.5,94,76,62,30.07,29.98,29,8,29,0.00
2013-3-8,44.8,35.5,30.5,35.3,28.7,24.4,94,77,58,30.20,29.98,36,11,36,0.02
2013-3-9,57.6,42.0,31.2,28.7,24.1,16.9,79,52,23,30.28,30.18,28,5,28,0.00
2013-3-10,56.2,40.9,26.3,33.7,27.3,21.9,84,62,35,30.32,30.18,12,3,16,0.00
2013-3-11,50.8,42.8,31.4,43.2,35.1,28.5,91,75,48,30.21,30.00,21,4,21,0.00
2013-3-12,53.3,48.4,38.3,52.2,45.6,33.6,96,90,77,30.00,29.60,34,5,34,1.92
2013-3-13,46.9,38.4,29.4,33.8,27.8,21.0,93,68,37,29.81,29.72,24,4,24,0.00
2013-3-14,32.1,27.9,22.1,28.5,13.2,8.3,88,54,41,29.86,29.78,34,7,34,0.00
2013-3-15,40.1,32.8,23.9,29.9,19.7,10.4,79,59,42,29.89,29.64,38,5,38,0.00
2013-3-16,38.7,31.9,27.2,27.8,21.9,15.8,89,67,42,29.87,29.70,30,4,30,0.00
2013-3-17,34.6,28.8,22.4,22.2,12.8,8.0,80,52,35,30.29,29.87,31,6,31,0.00
2013-3-18,34.0,26.6,16.3,25.2,13.5,5.8,93,61,32,30.39,30.04,16,2,16,0.00
2013-3-19,41.2,32.4,26.6,36.0,29.6,21.0,96,90,63,30.04,29.65,21,1,21,0.42
2013-3-20,41.2,31.5,26.4,23.7,20.4,16.1,85,64,37,29.78,29.71,21,2,21,0.12
2013-3-21,38.4,28.0,17.7,22.1,14.6,9.0,92,60,31,29.78,29.58,25,5,25,0.03
2013-3-22,38.8,30.6,21.6,23.7,19.6,12.6,80,64,47,29.78,29.65,31,4,31,0.01
2013-3-23,40.7,35.1,31.5,24.8,21.2,18.0,73,57,43,29.85,29.74,35,8,35,0.00
2013-3-24,44.0,36.2,30.6,26.2,22.5,19.7,82,58,44,29.88,29.68,25,6,25,0.00
2013-3-25,44.3,36.1,29.4,28.0,25.8,23.9,86,68,46,29.70,29.43,21,3,21,0.00